sensor_id;sensor_type;location;lat;lon;timestamp;P1;durP1;ratioP1;P2;durP2;ratioP2
38621;SDS011;24380;51.132;5.360;2023-04-06T00:01:18;42.13;;;20.70;;
38621;SDS011;24380;51.132;5.360;2023-04-06T00:03:45;34.50;;;19.07;;
38621;SDS011;24380;51.132;5.360;2023-04-06T00:06:13;30.88;;;18.35;;
38621;SDS011;24380;51.132;5.360;2023-04-06T00:08:41;29.27;;;18.45;;
38621;SDS011;24380;51.132;5.360;2023-04-06T00:11:10;30.02;;;18.40;;
38621;SDS011;24380;51.132;5.360;2023-04-06T00:13:37;30.85;;;19.17;;
38621;SDS011;24380;51.132;5.360;2023-04-06T00:16:05;32.45;;;19.23;;
38621;SDS011;24380;51.132;5.360;2023-04-06T00:18:33;35.38;;;19.95;;
38621;SDS011;24380;51.132;5.360;2023-04-06T00:21:00;32.98;;;19.48;;
38621;SDS011;24380;51.132;5.360;2023-04-06T00:23:28;30.62;;;18.30;;
38621;SDS011;24380;51.132;5.360;2023-04-06T00:25:56;33.35;;;18.50;;
38621;SDS011;24380;51.132;5.360;2023-04-06T00:28:23;31.23;;;18.77;;
38621;SDS011;24380;51.132;5.360;2023-04-06T00:30:52;34.27;;;18.65;;
38621;SDS011;24380;51.132;5.360;2023-04-06T00:33:21;32.53;;;18.25;;
38621;SDS011;24380;51.132;5.360;2023-04-06T00:35:49;33.20;;;19.55;;
38621;SDS011;24380;51.132;5.360;2023-04-06T00:38:17;32.85;;;19.12;;
38621;SDS011;24380;51.132;5.360;2023-04-06T00:40:45;35.50;;;18.23;;
38621;SDS011;24380;51.132;5.360;2023-04-06T00:43:12;30.27;;;18.82;;
38621;SDS011;24380;51.132;5.360;2023-04-06T00:45:41;37.63;;;18.67;;
38621;SDS011;24380;51.132;5.360;2023-04-06T00:48:09;31.68;;;18.40;;
38621;SDS011;24380;51.132;5.360;2023-04-06T00:50:36;34.75;;;18.55;;
38621;SDS011;24380;51.132;5.360;2023-04-06T00:53:04;29.37;;;17.57;;
38621;SDS011;24380;51.132;5.360;2023-04-06T00:55:31;27.07;;;17.00;;
38621;SDS011;24380;51.132;5.360;2023-04-06T00:58:01;31.85;;;17.42;;
38621;SDS011;24380;51.132;5.360;2023-04-06T01:00:29;28.20;;;16.93;;
38621;SDS011;24380;51.132;5.360;2023-04-06T01:02:58;32.75;;;17.65;;
38621;SDS011;24380;51.132;5.360;2023-04-06T01:05:26;28.57;;;17.42;;
38621;SDS011;24380;51.132;5.360;2023-04-06T01:07:54;25.43;;;16.27;;
38621;SDS011;24380;51.132;5.360;2023-04-06T01:10:25;25.72;;;16.37;;
38621;SDS011;24380;51.132;5.360;2023-04-06T01:12:54;27.35;;;16.67;;
38621;SDS011;24380;51.132;5.360;2023-04-06T01:15:21;25.72;;;16.15;;
38621;SDS011;24380;51.132;5.360;2023-04-06T01:17:50;25.52;;;16.32;;
38621;SDS011;24380;51.132;5.360;2023-04-06T01:20:17;28.75;;;17.35;;
38621;SDS011;24380;51.132;5.360;2023-04-06T01:22:45;23.45;;;15.05;;
38621;SDS011;24380;51.132;5.360;2023-04-06T01:25:13;24.37;;;16.40;;
38621;SDS011;24380;51.132;5.360;2023-04-06T01:27:40;24.55;;;15.43;;
38621;SDS011;24380;51.132;5.360;2023-04-06T01:30:08;29.87;;;16.42;;
38621;SDS011;24380;51.132;5.360;2023-04-06T01:32:36;25.60;;;16.25;;
38621;SDS011;24380;51.132;5.360;2023-04-06T01:35:04;27.00;;;15.98;;
38621;SDS011;24380;51.132;5.360;2023-04-06T01:37:31;25.40;;;15.53;;
38621;SDS011;24380;51.132;5.360;2023-04-06T01:39:59;25.32;;;16.42;;
38621;SDS011;24380;51.132;5.360;2023-04-06T01:42:27;24.60;;;15.93;;
38621;SDS011;24380;51.132;5.360;2023-04-06T01:44:56;26.73;;;16.12;;
38621;SDS011;24380;51.132;5.360;2023-04-06T01:47:23;24.45;;;15.95;;
38621;SDS011;24380;51.132;5.360;2023-04-06T01:49:51;34.15;;;16.90;;
38621;SDS011;24380;51.132;5.360;2023-04-06T01:52:18;27.07;;;16.70;;
38621;SDS011;24380;51.132;5.360;2023-04-06T01:54:46;26.65;;;16.57;;
38621;SDS011;24380;51.132;5.360;2023-04-06T01:57:14;27.00;;;16.37;;
38621;SDS011;24380;51.132;5.360;2023-04-06T01:59:41;25.12;;;16.70;;
38621;SDS011;24380;51.132;5.360;2023-04-06T02:02:09;24.35;;;15.40;;
38621;SDS011;24380;51.132;5.360;2023-04-06T02:04:38;26.45;;;16.17;;
38621;SDS011;24380;51.132;5.360;2023-04-06T02:07:06;28.00;;;16.48;;
38621;SDS011;24380;51.132;5.360;2023-04-06T02:09:33;25.92;;;16.50;;
38621;SDS011;24380;51.132;5.360;2023-04-06T02:12:01;26.87;;;16.35;;
38621;SDS011;24380;51.132;5.360;2023-04-06T02:14:28;24.25;;;15.68;;
38621;SDS011;24380;51.132;5.360;2023-04-06T02:16:56;27.45;;;16.40;;
38621;SDS011;24380;51.132;5.360;2023-04-06T02:19:24;28.00;;;17.77;;
38621;SDS011;24380;51.132;5.360;2023-04-06T02:21:52;29.67;;;17.77;;
38621;SDS011;24380;51.132;5.360;2023-04-06T02:24:19;25.37;;;17.05;;
38621;SDS011;24380;51.132;5.360;2023-04-06T02:26:46;26.48;;;16.93;;
38621;SDS011;24380;51.132;5.360;2023-04-06T02:29:14;29.23;;;16.57;;
38621;SDS011;24380;51.132;5.360;2023-04-06T02:31:41;28.42;;;17.12;;
38621;SDS011;24380;51.132;5.360;2023-04-06T02:34:09;26.95;;;16.90;;
38621;SDS011;24380;51.132;5.360;2023-04-06T02:36:38;30.72;;;17.55;;
38621;SDS011;24380;51.132;5.360;2023-04-06T02:39:06;30.68;;;17.57;;
38621;SDS011;24380;51.132;5.360;2023-04-06T02:41:33;29.12;;;16.70;;
38621;SDS011;24380;51.132;5.360;2023-04-06T02:44:01;25.95;;;16.82;;
38621;SDS011;24380;51.132;5.360;2023-04-06T02:46:29;30.17;;;17.10;;
38621;SDS011;24380;51.132;5.360;2023-04-06T02:48:57;26.90;;;17.15;;
38621;SDS011;24380;51.132;5.360;2023-04-06T02:51:26;27.93;;;17.17;;
38621;SDS011;24380;51.132;5.360;2023-04-06T02:53:54;31.97;;;17.17;;
38621;SDS011;24380;51.132;5.360;2023-04-06T02:56:21;26.90;;;16.60;;
38621;SDS011;24380;51.132;5.360;2023-04-06T02:58:49;30.17;;;17.32;;
38621;SDS011;24380;51.132;5.360;2023-04-06T03:01:16;30.55;;;16.73;;
38621;SDS011;24380;51.132;5.360;2023-04-06T03:03:44;30.23;;;17.50;;
38621;SDS011;24380;51.132;5.360;2023-04-06T03:06:11;26.60;;;16.07;;
38621;SDS011;24380;51.132;5.360;2023-04-06T03:08:39;24.57;;;16.45;;
38621;SDS011;24380;51.132;5.360;2023-04-06T03:11:06;27.90;;;16.37;;
38621;SDS011;24380;51.132;5.360;2023-04-06T03:13:34;28.98;;;17.15;;
38621;SDS011;24380;51.132;5.360;2023-04-06T03:16:04;26.73;;;15.90;;
38621;SDS011;24380;51.132;5.360;2023-04-06T03:18:32;25.95;;;16.00;;
38621;SDS011;24380;51.132;5.360;2023-04-06T03:21:00;24.37;;;15.43;;
38621;SDS011;24380;51.132;5.360;2023-04-06T03:23:27;30.88;;;16.62;;
38621;SDS011;24380;51.132;5.360;2023-04-06T03:25:55;25.35;;;16.10;;
38621;SDS011;24380;51.132;5.360;2023-04-06T03:28:22;26.87;;;16.20;;
38621;SDS011;24380;51.132;5.360;2023-04-06T03:30:50;28.07;;;16.27;;
38621;SDS011;24380;51.132;5.360;2023-04-06T03:33:17;26.30;;;15.65;;
38621;SDS011;24380;51.132;5.360;2023-04-06T03:35:45;29.72;;;16.12;;
38621;SDS011;24380;51.132;5.360;2023-04-06T03:38:13;22.13;;;14.80;;
38621;SDS011;24380;51.132;5.360;2023-04-06T03:40:40;25.95;;;15.05;;
38621;SDS011;24380;51.132;5.360;2023-04-06T03:43:08;25.48;;;15.72;;
38621;SDS011;24380;51.132;5.360;2023-04-06T03:45:35;31.48;;;16.85;;
38621;SDS011;24380;51.132;5.360;2023-04-06T03:48:03;26.77;;;16.20;;
38621;SDS011;24380;51.132;5.360;2023-04-06T03:50:31;31.25;;;16.48;;
38621;SDS011;24380;51.132;5.360;2023-04-06T03:52:58;23.77;;;14.90;;
38621;SDS011;24380;51.132;5.360;2023-04-06T03:55:28;26.35;;;15.95;;
38621;SDS011;24380;51.132;5.360;2023-04-06T03:57:56;27.13;;;15.20;;
38621;SDS011;24380;51.132;5.360;2023-04-06T04:00:24;24.02;;;15.03;;
38621;SDS011;24380;51.132;5.360;2023-04-06T04:02:51;24.60;;;15.18;;
38621;SDS011;24380;51.132;5.360;2023-04-06T04:05:19;25.55;;;15.63;;
38621;SDS011;24380;51.132;5.360;2023-04-06T04:07:48;27.20;;;16.15;;
38621;SDS011;24380;51.132;5.360;2023-04-06T04:10:15;27.62;;;16.02;;
38621;SDS011;24380;51.132;5.360;2023-04-06T04:12:43;25.15;;;15.28;;
38621;SDS011;24380;51.132;5.360;2023-04-06T04:15:11;26.82;;;15.65;;
38621;SDS011;24380;51.132;5.360;2023-04-06T04:17:38;26.33;;;15.68;;
38621;SDS011;24380;51.132;5.360;2023-04-06T04:20:06;23.15;;;14.87;;
38621;SDS011;24380;51.132;5.360;2023-04-06T04:22:34;26.35;;;15.98;;
38621;SDS011;24380;51.132;5.360;2023-04-06T04:25:02;27.52;;;16.23;;
38621;SDS011;24380;51.132;5.360;2023-04-06T04:27:29;23.57;;;14.85;;
38621;SDS011;24380;51.132;5.360;2023-04-06T04:29:57;25.77;;;15.65;;
38621;SDS011;24380;51.132;5.360;2023-04-06T04:32:25;25.65;;;15.43;;
38621;SDS011;24380;51.132;5.360;2023-04-06T04:34:53;30.25;;;15.03;;
38621;SDS011;24380;51.132;5.360;2023-04-06T04:37:21;25.17;;;15.15;;
38621;SDS011;24380;51.132;5.360;2023-04-06T04:39:48;26.37;;;14.75;;
38621;SDS011;24380;51.132;5.360;2023-04-06T04:42:16;22.60;;;14.28;;
38621;SDS011;24380;51.132;5.360;2023-04-06T04:44:43;26.62;;;15.23;;
38621;SDS011;24380;51.132;5.360;2023-04-06T04:47:11;29.40;;;16.42;;
38621;SDS011;24380;51.132;5.360;2023-04-06T04:49:38;32.45;;;16.93;;
38621;SDS011;24380;51.132;5.360;2023-04-06T04:52:06;28.05;;;17.23;;
38621;SDS011;24380;51.132;5.360;2023-04-06T04:54:34;26.57;;;16.17;;
38621;SDS011;24380;51.132;5.360;2023-04-06T04:57:01;25.72;;;15.55;;
38621;SDS011;24380;51.132;5.360;2023-04-06T04:59:29;30.20;;;14.95;;
38621;SDS011;24380;51.132;5.360;2023-04-06T05:01:56;27.10;;;15.40;;
38621;SDS011;24380;51.132;5.360;2023-04-06T05:04:24;22.87;;;13.65;;
38621;SDS011;24380;51.132;5.360;2023-04-06T05:09:34;23.65;;;14.68;;
38621;SDS011;24380;51.132;5.360;2023-04-06T05:12:01;24.32;;;14.28;;
38621;SDS011;24380;51.132;5.360;2023-04-06T05:14:29;21.68;;;13.95;;
38621;SDS011;24380;51.132;5.360;2023-04-06T05:16:56;26.07;;;13.48;;
38621;SDS011;24380;51.132;5.360;2023-04-06T05:19:24;23.50;;;14.03;;
38621;SDS011;24380;51.132;5.360;2023-04-06T05:21:52;29.90;;;14.10;;
38621;SDS011;24380;51.132;5.360;2023-04-06T05:24:20;24.50;;;13.80;;
38621;SDS011;24380;51.132;5.360;2023-04-06T05:26:47;24.18;;;14.38;;
38621;SDS011;24380;51.132;5.360;2023-04-06T05:29:15;22.82;;;13.40;;
38621;SDS011;24380;51.132;5.360;2023-04-06T05:34:19;21.48;;;14.05;;
38621;SDS011;24380;51.132;5.360;2023-04-06T05:36:47;23.80;;;13.13;;
38621;SDS011;24380;51.132;5.360;2023-04-06T05:39:14;22.65;;;13.58;;
38621;SDS011;24380;51.132;5.360;2023-04-06T05:41:42;23.87;;;13.65;;
38621;SDS011;24380;51.132;5.360;2023-04-06T05:44:09;24.00;;;14.47;;
38621;SDS011;24380;51.132;5.360;2023-04-06T05:46:37;25.35;;;14.87;;
38621;SDS011;24380;51.132;5.360;2023-04-06T05:49:04;25.88;;;15.00;;
38621;SDS011;24380;51.132;5.360;2023-04-06T05:51:32;27.05;;;14.20;;
38621;SDS011;24380;51.132;5.360;2023-04-06T05:53:59;23.92;;;14.07;;
38621;SDS011;24380;51.132;5.360;2023-04-06T05:56:27;22.85;;;13.93;;
38621;SDS011;24380;51.132;5.360;2023-04-06T05:58:56;24.15;;;14.05;;
38621;SDS011;24380;51.132;5.360;2023-04-06T06:01:23;23.27;;;13.88;;
38621;SDS011;24380;51.132;5.360;2023-04-06T06:03:51;21.57;;;13.22;;
38621;SDS011;24380;51.132;5.360;2023-04-06T06:06:18;22.25;;;12.98;;
38621;SDS011;24380;51.132;5.360;2023-04-06T06:08:46;24.47;;;13.58;;
38621;SDS011;24380;51.132;5.360;2023-04-06T06:11:13;25.37;;;14.40;;
38621;SDS011;24380;51.132;5.360;2023-04-06T06:13:41;23.60;;;14.18;;
38621;SDS011;24380;51.132;5.360;2023-04-06T06:16:08;22.55;;;13.50;;
38621;SDS011;24380;51.132;5.360;2023-04-06T06:18:36;21.10;;;13.10;;
38621;SDS011;24380;51.132;5.360;2023-04-06T06:21:03;22.90;;;13.15;;
38621;SDS011;24380;51.132;5.360;2023-04-06T06:23:31;23.10;;;13.15;;
38621;SDS011;24380;51.132;5.360;2023-04-06T06:25:58;22.37;;;13.15;;
38621;SDS011;24380;51.132;5.360;2023-04-06T06:28:27;22.90;;;12.88;;
38621;SDS011;24380;51.132;5.360;2023-04-06T06:30:54;20.85;;;13.38;;
38621;SDS011;24380;51.132;5.360;2023-04-06T06:33:22;21.27;;;12.60;;
38621;SDS011;24380;51.132;5.360;2023-04-06T06:35:49;23.95;;;13.05;;
38621;SDS011;24380;51.132;5.360;2023-04-06T06:38:17;21.48;;;12.88;;
38621;SDS011;24380;51.132;5.360;2023-04-06T06:40:45;21.97;;;12.23;;
38621;SDS011;24380;51.132;5.360;2023-04-06T06:43:13;22.90;;;12.73;;
38621;SDS011;24380;51.132;5.360;2023-04-06T06:45:41;24.65;;;13.40;;
38621;SDS011;24380;51.132;5.360;2023-04-06T06:48:09;20.23;;;12.40;;
38621;SDS011;24380;51.132;5.360;2023-04-06T06:50:36;22.85;;;12.63;;
38621;SDS011;24380;51.132;5.360;2023-04-06T06:53:04;26.17;;;12.82;;
38621;SDS011;24380;51.132;5.360;2023-04-06T06:55:31;23.77;;;12.85;;
38621;SDS011;24380;51.132;5.360;2023-04-06T06:57:59;22.45;;;12.85;;
38621;SDS011;24380;51.132;5.360;2023-04-06T07:00:26;20.52;;;11.50;;
38621;SDS011;24380;51.132;5.360;2023-04-06T07:02:54;20.72;;;13.00;;
38621;SDS011;24380;51.132;5.360;2023-04-06T07:05:21;24.70;;;12.58;;
38621;SDS011;24380;51.132;5.360;2023-04-06T07:07:49;20.37;;;12.47;;
38621;SDS011;24380;51.132;5.360;2023-04-06T07:10:17;20.23;;;12.25;;
38621;SDS011;24380;51.132;5.360;2023-04-06T07:12:44;22.48;;;11.90;;
38621;SDS011;24380;51.132;5.360;2023-04-06T07:15:12;19.25;;;12.37;;
38621;SDS011;24380;51.132;5.360;2023-04-06T07:17:40;24.43;;;13.95;;
38621;SDS011;24380;51.132;5.360;2023-04-06T07:20:07;27.73;;;14.80;;
38621;SDS011;24380;51.132;5.360;2023-04-06T07:22:35;22.22;;;12.68;;
38621;SDS011;24380;51.132;5.360;2023-04-06T07:25:04;23.47;;;12.98;;
38621;SDS011;24380;51.132;5.360;2023-04-06T07:27:32;21.35;;;12.28;;
38621;SDS011;24380;51.132;5.360;2023-04-06T07:29:59;21.27;;;12.58;;
38621;SDS011;24380;51.132;5.360;2023-04-06T07:32:27;17.52;;;11.40;;
38621;SDS011;24380;51.132;5.360;2023-04-06T07:34:55;21.97;;;12.55;;
38621;SDS011;24380;51.132;5.360;2023-04-06T07:37:24;18.77;;;11.78;;
38621;SDS011;24380;51.132;5.360;2023-04-06T07:39:51;19.23;;;11.83;;
38621;SDS011;24380;51.132;5.360;2023-04-06T07:42:19;22.37;;;12.28;;
38621;SDS011;24380;51.132;5.360;2023-04-06T07:44:47;24.70;;;13.00;;
38621;SDS011;24380;51.132;5.360;2023-04-06T07:47:15;20.25;;;12.20;;
38621;SDS011;24380;51.132;5.360;2023-04-06T07:49:42;20.43;;;11.30;;
38621;SDS011;24380;51.132;5.360;2023-04-06T07:52:11;20.23;;;11.85;;
38621;SDS011;24380;51.132;5.360;2023-04-06T07:54:40;22.95;;;12.18;;
38621;SDS011;24380;51.132;5.360;2023-04-06T07:57:08;21.65;;;11.43;;
38621;SDS011;24380;51.132;5.360;2023-04-06T07:59:35;20.23;;;12.00;;
38621;SDS011;24380;51.132;5.360;2023-04-06T08:02:03;22.02;;;11.60;;
38621;SDS011;24380;51.132;5.360;2023-04-06T08:04:31;21.65;;;12.50;;
38621;SDS011;24380;51.132;5.360;2023-04-06T08:06:58;21.40;;;12.82;;
38621;SDS011;24380;51.132;5.360;2023-04-06T08:09:26;22.62;;;13.98;;
38621;SDS011;24380;51.132;5.360;2023-04-06T08:11:53;31.60;;;18.30;;
38621;SDS011;24380;51.132;5.360;2023-04-06T08:14:21;23.38;;;14.43;;
38621;SDS011;24380;51.132;5.360;2023-04-06T08:16:48;23.40;;;14.05;;
38621;SDS011;24380;51.132;5.360;2023-04-06T08:19:16;20.57;;;12.88;;
38621;SDS011;24380;51.132;5.360;2023-04-06T08:21:44;23.80;;;13.68;;
38621;SDS011;24380;51.132;5.360;2023-04-06T08:24:13;22.90;;;12.33;;
38621;SDS011;24380;51.132;5.360;2023-04-06T08:26:41;20.05;;;12.78;;
38621;SDS011;24380;51.132;5.360;2023-04-06T08:29:08;25.15;;;13.30;;
38621;SDS011;24380;51.132;5.360;2023-04-06T08:31:37;16.82;;;11.50;;
38621;SDS011;24380;51.132;5.360;2023-04-06T08:34:04;22.93;;;12.93;;
38621;SDS011;24380;51.132;5.360;2023-04-06T08:36:32;20.95;;;13.45;;
38621;SDS011;24380;51.132;5.360;2023-04-06T08:39:00;24.15;;;12.73;;
38621;SDS011;24380;51.132;5.360;2023-04-06T08:41:27;20.35;;;13.00;;
38621;SDS011;24380;51.132;5.360;2023-04-06T08:43:59;19.62;;;12.10;;
38621;SDS011;24380;51.132;5.360;2023-04-06T08:46:30;19.70;;;12.03;;
38621;SDS011;24380;51.132;5.360;2023-04-06T08:49:03;18.90;;;12.55;;
38621;SDS011;24380;51.132;5.360;2023-04-06T08:51:30;21.27;;;12.20;;
38621;SDS011;24380;51.132;5.360;2023-04-06T08:53:59;23.07;;;12.82;;
38621;SDS011;24380;51.132;5.360;2023-04-06T08:56:27;19.60;;;12.23;;
38621;SDS011;24380;51.132;5.360;2023-04-06T08:58:55;17.52;;;11.43;;
38621;SDS011;24380;51.132;5.360;2023-04-06T09:01:28;24.07;;;13.20;;
38621;SDS011;24380;51.132;5.360;2023-04-06T09:03:59;18.85;;;11.70;;
38621;SDS011;24380;51.132;5.360;2023-04-06T09:06:24;22.73;;;15.15;;
38621;SDS011;24380;51.132;5.360;2023-04-06T09:08:53;25.48;;;13.22;;
38621;SDS011;24380;51.132;5.360;2023-04-06T09:11:21;18.52;;;12.33;;
38621;SDS011;24380;51.132;5.360;2023-04-06T09:13:49;18.57;;;13.48;;
38621;SDS011;24380;51.132;5.360;2023-04-06T09:16:18;18.32;;;11.63;;
38621;SDS011;24380;51.132;5.360;2023-04-06T09:18:47;18.90;;;10.80;;
38621;SDS011;24380;51.132;5.360;2023-04-06T09:21:18;22.75;;;15.08;;
38621;SDS011;24380;51.132;5.360;2023-04-06T09:23:46;15.43;;;10.13;;
38621;SDS011;24380;51.132;5.360;2023-04-06T09:26:17;20.50;;;10.72;;
38621;SDS011;24380;51.132;5.360;2023-04-06T09:28:53;19.40;;;10.50;;
38621;SDS011;24380;51.132;5.360;2023-04-06T09:31:25;16.97;;;9.93;;
38621;SDS011;24380;51.132;5.360;2023-04-06T09:33:52;15.53;;;10.03;;
38621;SDS011;24380;51.132;5.360;2023-04-06T09:36:29;18.20;;;10.40;;
38621;SDS011;24380;51.132;5.360;2023-04-06T09:39:00;15.53;;;10.35;;
38621;SDS011;24380;51.132;5.360;2023-04-06T09:41:32;17.17;;;10.25;;
38621;SDS011;24380;51.132;5.360;2023-04-06T09:44:08;16.42;;;10.15;;
38621;SDS011;24380;51.132;5.360;2023-04-06T09:46:40;18.87;;;10.08;;
38621;SDS011;24380;51.132;5.360;2023-04-06T09:49:10;17.73;;;9.93;;
38621;SDS011;24380;51.132;5.360;2023-04-06T09:51:49;15.75;;;9.78;;
38621;SDS011;24380;51.132;5.360;2023-04-06T09:54:18;13.20;;;8.60;;
38621;SDS011;24380;51.132;5.360;2023-04-06T09:56:51;16.45;;;8.88;;
38621;SDS011;24380;51.132;5.360;2023-04-06T10:02:32;12.45;;;7.87;;
38621;SDS011;24380;51.132;5.360;2023-04-06T10:07:38;10.78;;;6.10;;
38621;SDS011;24380;51.132;5.360;2023-04-06T10:10:08;8.88;;;5.85;;
38621;SDS011;24380;51.132;5.360;2023-04-06T10:12:38;8.95;;;5.05;;
38621;SDS011;24380;51.132;5.360;2023-04-06T10:15:07;7.90;;;5.85;;
38621;SDS011;24380;51.132;5.360;2023-04-06T10:17:35;8.88;;;6.33;;
38621;SDS011;24380;51.132;5.360;2023-04-06T10:20:09;7.55;;;5.65;;
38621;SDS011;24380;51.132;5.360;2023-04-06T10:25:53;11.28;;;7.00;;
38621;SDS011;24380;51.132;5.360;2023-04-06T10:28:21;9.55;;;6.92;;
38621;SDS011;24380;51.132;5.360;2023-04-06T10:30:49;11.70;;;7.22;;
38621;SDS011;24380;51.132;5.360;2023-04-06T10:33:25;16.32;;;8.10;;
38621;SDS011;24380;51.132;5.360;2023-04-06T10:35:53;10.88;;;7.58;;
38621;SDS011;24380;51.132;5.360;2023-04-06T10:41:04;13.70;;;7.90;;
38621;SDS011;24380;51.132;5.360;2023-04-06T10:43:33;11.88;;;8.35;;
38621;SDS011;24380;51.132;5.360;2023-04-06T10:46:03;13.95;;;8.98;;
38621;SDS011;24380;51.132;5.360;2023-04-06T10:48:36;13.97;;;8.37;;
38621;SDS011;24380;51.132;5.360;2023-04-06T10:51:14;14.28;;;8.63;;
38621;SDS011;24380;51.132;5.360;2023-04-06T10:53:38;13.10;;;7.50;;
38621;SDS011;24380;51.132;5.360;2023-04-06T10:56:11;14.35;;;8.70;;
38621;SDS011;24380;51.132;5.360;2023-04-06T10:58:44;11.37;;;7.73;;
38621;SDS011;24380;51.132;5.360;2023-04-06T11:01:12;14.55;;;8.93;;
38621;SDS011;24380;51.132;5.360;2023-04-06T11:03:46;14.73;;;8.75;;
38621;SDS011;24380;51.132;5.360;2023-04-06T11:06:18;14.55;;;8.83;;
38621;SDS011;24380;51.132;5.360;2023-04-06T11:08:47;13.35;;;9.33;;
38621;SDS011;24380;51.132;5.360;2023-04-06T11:11:15;14.20;;;9.10;;
38621;SDS011;24380;51.132;5.360;2023-04-06T11:16:17;16.07;;;9.90;;
38621;SDS011;24380;51.132;5.360;2023-04-06T11:18:52;13.98;;;9.88;;
38621;SDS011;24380;51.132;5.360;2023-04-06T11:26:46;15.30;;;9.65;;
38621;SDS011;24380;51.132;5.360;2023-04-06T11:29:18;14.23;;;9.08;;
38621;SDS011;24380;51.132;5.360;2023-04-06T11:31:48;15.23;;;9.20;;
38621;SDS011;24380;51.132;5.360;2023-04-06T11:34:22;14.18;;;9.03;;
38621;SDS011;24380;51.132;5.360;2023-04-06T11:36:54;15.23;;;9.75;;
38621;SDS011;24380;51.132;5.360;2023-04-06T11:39:26;14.35;;;9.00;;
38621;SDS011;24380;51.132;5.360;2023-04-06T11:41:59;12.63;;;9.68;;
38621;SDS011;24380;51.132;5.360;2023-04-06T11:47:08;10.90;;;7.72;;
38621;SDS011;24380;51.132;5.360;2023-04-06T11:49:37;14.53;;;8.60;;
38621;SDS011;24380;51.132;5.360;2023-04-06T11:52:19;15.03;;;8.40;;
38621;SDS011;24380;51.132;5.360;2023-04-06T11:54:49;13.10;;;8.08;;
38621;SDS011;24380;51.132;5.360;2023-04-06T11:57:17;12.10;;;8.15;;
38621;SDS011;24380;51.132;5.360;2023-04-06T11:59:46;10.75;;;7.55;;
38621;SDS011;24380;51.132;5.360;2023-04-06T12:02:14;13.00;;;8.33;;
38621;SDS011;24380;51.132;5.360;2023-04-06T12:04:43;13.13;;;7.95;;
38621;SDS011;24380;51.132;5.360;2023-04-06T12:07:11;11.95;;;7.35;;
38621;SDS011;24380;51.132;5.360;2023-04-06T12:09:38;11.10;;;7.40;;
38621;SDS011;24380;51.132;5.360;2023-04-06T12:12:06;12.50;;;7.70;;
38621;SDS011;24380;51.132;5.360;2023-04-06T12:14:33;11.83;;;7.42;;
38621;SDS011;24380;51.132;5.360;2023-04-06T12:17:01;10.98;;;7.97;;
38621;SDS011;24380;51.132;5.360;2023-04-06T12:19:28;12.68;;;7.75;;
38621;SDS011;24380;51.132;5.360;2023-04-06T12:21:56;12.23;;;8.00;;
38621;SDS011;24380;51.132;5.360;2023-04-06T12:24:24;13.08;;;8.08;;
38621;SDS011;24380;51.132;5.360;2023-04-06T12:26:52;14.35;;;8.83;;
38621;SDS011;24380;51.132;5.360;2023-04-06T12:29:20;12.93;;;8.33;;
38621;SDS011;24380;51.132;5.360;2023-04-06T12:31:48;15.68;;;9.23;;
38621;SDS011;24380;51.132;5.360;2023-04-06T12:34:16;11.20;;;7.50;;
38621;SDS011;24380;51.132;5.360;2023-04-06T12:36:44;19.77;;;11.97;;
38621;SDS011;24380;51.132;5.360;2023-04-06T12:39:11;15.30;;;9.78;;
38621;SDS011;24380;51.132;5.360;2023-04-06T12:41:39;22.65;;;12.65;;
38621;SDS011;24380;51.132;5.360;2023-04-06T12:44:07;14.90;;;9.08;;
38621;SDS011;24380;51.132;5.360;2023-04-06T12:46:34;29.95;;;16.82;;
38621;SDS011;24380;51.132;5.360;2023-04-06T12:49:02;18.00;;;10.20;;
38621;SDS011;24380;51.132;5.360;2023-04-06T12:51:30;16.48;;;11.90;;
38621;SDS011;24380;51.132;5.360;2023-04-06T12:53:57;13.50;;;9.65;;
38621;SDS011;24380;51.132;5.360;2023-04-06T12:56:25;12.68;;;8.83;;
38621;SDS011;24380;51.132;5.360;2023-04-06T12:58:53;24.15;;;16.07;;
38621;SDS011;24380;51.132;5.360;2023-04-06T13:01:21;16.07;;;11.30;;
38621;SDS011;24380;51.132;5.360;2023-04-06T13:03:49;15.38;;;9.38;;
38621;SDS011;24380;51.132;5.360;2023-04-06T13:06:17;16.25;;;9.98;;
38621;SDS011;24380;51.132;5.360;2023-04-06T13:08:44;13.22;;;9.28;;
38621;SDS011;24380;51.132;5.360;2023-04-06T13:11:13;12.18;;;7.70;;
38621;SDS011;24380;51.132;5.360;2023-04-06T13:13:40;12.45;;;8.33;;
38621;SDS011;24380;51.132;5.360;2023-04-06T13:16:08;12.58;;;8.43;;
38621;SDS011;24380;51.132;5.360;2023-04-06T13:18:35;13.20;;;8.73;;
38621;SDS011;24380;51.132;5.360;2023-04-06T13:21:09;13.40;;;8.40;;
38621;SDS011;24380;51.132;5.360;2023-04-06T13:23:34;10.73;;;8.03;;
38621;SDS011;24380;51.132;5.360;2023-04-06T13:26:02;10.95;;;8.03;;
38621;SDS011;24380;51.132;5.360;2023-04-06T13:28:32;12.25;;;9.33;;
38621;SDS011;24380;51.132;5.360;2023-04-06T13:31:01;13.70;;;8.88;;
38621;SDS011;24380;51.132;5.360;2023-04-06T13:33:29;12.30;;;8.83;;
38621;SDS011;24380;51.132;5.360;2023-04-06T13:35:57;14.05;;;9.15;;
38621;SDS011;24380;51.132;5.360;2023-04-06T13:38:25;14.75;;;9.53;;
38621;SDS011;24380;51.132;5.360;2023-04-06T13:40:53;13.32;;;8.90;;
38621;SDS011;24380;51.132;5.360;2023-04-06T13:43:21;16.32;;;9.15;;
38621;SDS011;24380;51.132;5.360;2023-04-06T13:45:51;11.22;;;8.83;;
38621;SDS011;24380;51.132;5.360;2023-04-06T13:48:23;14.03;;;9.75;;
38621;SDS011;24380;51.132;5.360;2023-04-06T13:50:52;14.78;;;9.05;;
38621;SDS011;24380;51.132;5.360;2023-04-06T13:53:19;12.55;;;9.13;;
38621;SDS011;24380;51.132;5.360;2023-04-06T13:55:53;12.88;;;9.13;;
38621;SDS011;24380;51.132;5.360;2023-04-06T13:58:21;13.32;;;8.85;;
38621;SDS011;24380;51.132;5.360;2023-04-06T14:00:49;14.07;;;8.25;;
38621;SDS011;24380;51.132;5.360;2023-04-06T14:03:18;12.37;;;8.63;;
38621;SDS011;24380;51.132;5.360;2023-04-06T14:05:46;12.63;;;8.78;;
38621;SDS011;24380;51.132;5.360;2023-04-06T14:08:13;12.88;;;8.40;;
38621;SDS011;24380;51.132;5.360;2023-04-06T14:10:41;11.25;;;8.28;;
38621;SDS011;24380;51.132;5.360;2023-04-06T14:13:08;12.88;;;8.65;;
38621;SDS011;24380;51.132;5.360;2023-04-06T14:15:37;13.30;;;8.73;;
38621;SDS011;24380;51.132;5.360;2023-04-06T14:18:05;13.32;;;10.05;;
38621;SDS011;24380;51.132;5.360;2023-04-06T14:20:32;13.93;;;9.05;;
38621;SDS011;24380;51.132;5.360;2023-04-06T14:23:02;13.53;;;9.30;;
38621;SDS011;24380;51.132;5.360;2023-04-06T14:25:30;15.38;;;9.90;;
38621;SDS011;24380;51.132;5.360;2023-04-06T14:27:59;14.65;;;9.38;;
38621;SDS011;24380;51.132;5.360;2023-04-06T14:30:29;13.18;;;9.25;;
38621;SDS011;24380;51.132;5.360;2023-04-06T14:32:57;13.78;;;9.15;;
38621;SDS011;24380;51.132;5.360;2023-04-06T14:35:24;16.17;;;11.48;;
38621;SDS011;24380;51.132;5.360;2023-04-06T14:37:53;12.23;;;9.08;;
38621;SDS011;24380;51.132;5.360;2023-04-06T14:40:24;16.75;;;10.65;;
38621;SDS011;24380;51.132;5.360;2023-04-06T14:42:51;15.23;;;11.38;;
38621;SDS011;24380;51.132;5.360;2023-04-06T14:45:20;15.90;;;10.55;;
38621;SDS011;24380;51.132;5.360;2023-04-06T14:47:48;17.87;;;10.82;;
38621;SDS011;24380;51.132;5.360;2023-04-06T14:50:16;16.48;;;10.72;;
38621;SDS011;24380;51.132;5.360;2023-04-06T14:52:43;13.60;;;8.83;;
38621;SDS011;24380;51.132;5.360;2023-04-06T14:55:12;15.88;;;11.00;;
38621;SDS011;24380;51.132;5.360;2023-04-06T14:57:40;15.55;;;10.20;;
38621;SDS011;24380;51.132;5.360;2023-04-06T15:00:07;11.68;;;8.70;;